Flight Track Log - Related Links

Times and Time Zones

All times are in EDT time to prevent confusion due to time zone crossing. See the UAL4543 flight status page for this flight to view local times or setup timezone preferences in your user account.

Time Position Orientation Groundspeed Altitude Reporting Facility
EDT Latitude Longitude Course Direction KTS MPH feet Rate Location/Type
Fri 02:30:27 PM 35.8947 -78.7764 15° North 177 204 1,200  Level Washington Center
Fri 02:31:28 PM 35.9475 -78.7506 22° Northeast 220 253 3,300 2,557 Climbing Washington Center
Fri 02:33:00 PM 36.1029 -78.6971 39° Northeast  Level FlightAware Approximate
Fri 02:33:23 PM 36.0764 -78.6939 20° North 261 300 8,700  Level Washington Center
Fri 02:34:00 PM 36.1786 -78.6639 19° North  Level FlightAware Approximate
Fri 02:34:24 PM 36.1519 -78.6736 12° North 266 306 11,200  Level Washington Center
Fri 02:35:00 PM 36.2565 -78.6312 15° North  Level FlightAware Approximate
Fri 02:35:24 PM 36.2361 -78.6486 13° North 289 333 12,200  Level Washington Center
Fri 02:36:25 PM 36.3328 -78.6217 13° North 336 387 13,000 1,059 Climbing Washington Center
Fri 02:37:23 PM 36.4381 -78.5842 16° North 373 429 14,300 1,462 Climbing Washington Center
Fri 02:38:24 PM 36.5431 -78.5469 16° North 381 438 15,900 1,587 Climbing Washington Center
Fri 02:39:24 PM 36.6442 -78.5119 16° North 381 438 17,500 1,289 Climbing Washington Center
Fri 02:40:25 PM 36.7264 -78.4789 18° North 381 438 18,500 1,550 Climbing Washington Center
Fri 02:41:24 PM 36.8261 -78.4072 30° Northeast 381 438 20,600 2,017 Climbing Washington Center
Fri 02:42:24 PM 36.9133 -78.3378 32° Northeast 375 432 22,500 1,736 Climbing Washington Center
Fri 02:43:25 PM 37.0111 -78.2606 32° Northeast 375 432 24,100 1,388 Climbing Washington Center
Fri 02:44:25 PM 37.0897 -78.1931 34° Northeast 370 426 25,300 1,220 Climbing Washington Center
Fri 02:45:23 PM 37.1747 -78.1228 33° Northeast 376 433 26,500 864 Climbing Washington Center
Fri 02:46:23 PM 37.2681 -78.0450 34° Northeast 386 444 27,000 248 Climbing Washington Center
Fri 02:47:24 PM 37.3675 -77.9672 32° Northeast 398 458 27,000  Level Washington Center
Fri 02:48:24 PM 37.4675 -77.8786 35° Northeast 421 484 27,000  Level Washington Center
Fri 02:49:25 PM 37.5714 -77.7875 35° Northeast 438 504 27,000  Level Washington Center
Fri 02:50:25 PM 37.6750 -77.6961 35° Northeast 443 510 27,000  Level Washington Center
Fri 02:51:23 PM 37.7811 -77.6017 35° Northeast 457 526 27,000  Level Washington Center
Fri 02:52:23 PM 37.8847 -77.5072 36° Northeast 457 526 27,000  Level Washington Center
Fri 02:53:24 PM 37.9883 -77.4097 37° Northeast 457 526 27,000  Level Washington Center
Fri 02:54:22 PM 38.0900 -77.3197 35° Northeast 457 526 27,000  Level Washington Center
Fri 02:55:23 PM 38.1933 -77.2244 36° Northeast 457 526 27,000  Level Washington Center
Fri 02:56:24 PM 38.2947 -77.1261 37° Northeast 457 526 27,000  Level Washington Center
Fri 02:57:24 PM 38.3981 -77.0356 34° Northeast 457 526 27,000  Level Washington Center
Fri 02:58:25 PM 38.4992 -76.9394 37° Northeast 457 526 27,000  Level Washington Center
Fri 02:59:23 PM 38.6003 -76.8483 35° Northeast 457 526 27,000  Level Washington Center
Fri 03:00:24 PM 38.6994 -76.7489 38° Northeast 457 526 27,000  Level Washington Center
Fri 03:01:24 PM 38.7961 -76.6411 41° Northeast 457 526 27,000  Level Washington Center
Fri 03:02:25 PM 38.8889 -76.5331 42° Northeast 451 519 27,000  Level Washington Center
Fri 03:03:23 PM 38.9814 -76.4247 42° Northeast 446 513 27,000  Level Washington Center
Fri 03:04:24 PM 39.0736 -76.3189 42° Northeast 446 513 27,000  Level Washington Center
Fri 03:05:24 PM 39.1661 -76.2100 42° Northeast 446 513 27,000  Level Washington Center
Fri 03:06:25 PM 39.2625 -76.1008 41° Northeast 452 520 27,000  Level Washington Center
Fri 03:07:23 PM 39.3544 -75.9942 42° Northeast 452 520 27,000  Level Washington Center
Fri 03:08:24 PM 39.4464 -75.8844 43° Northeast 447 514 27,000  Level Washington Center
Fri 03:09:24 PM 39.5406 -75.7744 42° Northeast 447 514 27,000 -350 Level Washington Center
Fri 03:10:24 PM 39.6303 -75.6697 42° Northeast 447 514 26,300 -1,765 Descending Washington Center
Fri 03:11:23 PM 39.7197 -75.5619 43° Northeast 442 509 23,500 -2,723 Descending Washington Center
Fri 03:12:23 PM 39.8031 -75.4592 43° Northeast 424 488 20,900 -2,529 Descending Washington Center
Fri 03:13:24 PM 39.8842 -75.3617 43° Northeast 409 471 18,400 -2,262 Descending Washington Center
Fri 03:14:25 PM 39.9611 -75.2694 43° Northeast 385 443 16,300 -2,380 Descending Washington Center
Fri 03:15:25 PM 40.0419 -75.1686 44° Northeast 379 436 13,600 -2,203 Descending Washington Center
Fri 03:17:03 PM 40.1667 -75.0167 43° Northeast 331 381 10,500 -1,595 Descending New York TRACON
Fri 03:18:03 PM 40.2167 -74.9500 46° Northeast 284 327 9,400 -1,080 Descending New York TRACON
Fri 03:20:00 PM 40.3452 -74.7548 37° Northeast  Level FlightAware Approximate
Fri 03:22:03 PM 40.4333 -74.7000 118° Southeast 253 291 5,100  Level New York TRACON
Fri 03:23:03 PM 40.4833 -74.6500 37° Northeast 245 282 4,500 -600 Descending New York TRACON
Fri 03:25:00 PM 40.6996 -74.5833 North  Level FlightAware Approximate
Fri 03:27:00 PM 40.7317 -74.3041 118° Southeast  Level FlightAware Approximate

Login

Don't have an account? Register now (free) for customized features, flight alerts, and more!